Disclaimer

Please do not use the information listed here in-flight or in-navigation, as they are not provided to us by the airports but are provided by volunteers, so they might be outdated.

Search


Regions


Airport information page

Radio informations:
Tower (TWR) - 118.3 MHz
Clearance delivery - 121.6 MHz
Automatic Terminal Information Service (ATIS) - 120.45 MHz
WARSZAWA APP - 128.8 MHz

Airport informations:
Latitude: 52° 09' 56.70" N
Longitude: 020° 58' 01.64" E
Elevation: 362 feet - 110 meters
Operating hours: 24 hour operations
Operating agency: Civil government, landing fees and diplomatic clearance may be required
Timezone: UTC+1(+2DT)
Fuel: N/A

Runway information:
11/29 - 9186 x 164 feet< - >2800 x 50 meters
15/33 - 12106 x 197 feet< - >3690 x 60 meters

Recent METARs:
EPWA 201430Z 08014KT CAVOK 02/M04 Q1024 NOSIG
EPWA 201500Z 08011KT CAVOK 02/M04 Q1023 NOSIG
EPWA 201530Z 08011KT CAVOK 01/M04 Q1024 NOSIG

Airport on the map: